Time;durP1;ratioP1;P1;durP2;ratioP2;P2;SDS_P1;SDS_P2;PMS_P1;PMS_P2;Temp;Humidity;BMP_temperature;BMP_pressure;BME280_temperature;BME280_humidity;BME280_pressure;Samples;Min_cycle;Max_cycle;Signal;HPM_P1;HPM_P2
2022/05/26 00:02:16;;;;;;;3.60;2.92;;;;;;;;;;5071634;28;20476;-53
2022/05/26 00:04:42;;;;;;;3.30;3.00;;;;;;;;;;5073196;28;20025;-52
2022/05/26 00:07:09;;;;;;;7.85;3.22;;;;;;;;;;5072660;28;20021;-52
2022/05/26 00:09:35;;;;;;;3.65;2.88;;;;;;;;;;5072753;28;20063;-52
2022/05/26 00:12:01;;;;;;;4.88;2.50;;;;;;;;;;5072650;28;20044;-52
2022/05/26 00:14:27;;;;;;;7.10;6.20;;;;;;;;;;5073065;28;20473;-52
2022/05/26 00:16:53;;;;;;;18.33;11.98;;;;;;;;;;5076304;28;20433;-54
2022/05/26 00:19:20;;;;;;;17.58;14.05;;;;;;;;;;5076644;28;20020;-52
2022/05/26 00:21:49;;;;;;;11.00;9.57;;;;;;;;;;5076823;28;20032;-51
2022/05/26 00:24:16;;;;;;;7.43;5.85;;;;;;;;;;5076733;28;20032;-52
2022/05/26 00:26:42;;;;;;;25.42;18.67;;;;;;;;;;5076309;28;20020;-52
2022/05/26 00:29:08;;;;;;;43.42;31.23;;;;;;;;;;5076770;28;20037;-52
2022/05/26 00:31:34;;;;;;;9.13;6.63;;;;;;;;;;5076344;28;20016;-52
2022/05/26 00:34:00;;;;;;;7.50;4.65;;;;;;;;;;5076717;28;20052;-52
2022/05/26 00:36:40;;;;;;;4.85;3.25;;;;;;;;;;5076142;28;20021;-53
2022/05/26 00:39:10;;;;;;;2.88;2.28;;;;;;;;;;5076931;28;20020;-51
2022/05/26 00:41:39;;;;;;;5.53;2.20;;;;;;;;;;5076155;28;20020;-50
2022/05/26 00:44:05;;;;;;;3.60;2.40;;;;;;;;;;5076050;28;20476;-50
2022/05/26 00:46:37;;;;;;;4.15;2.30;;;;;;;;;;5076507;28;20103;-50
2022/05/26 00:49:03;;;;;;;2.22;2.03;;;;;;;;;;5076002;28;20078;-50
2022/05/26 00:51:32;;;;;;;2.35;1.92;;;;;;;;;;5076212;28;20082;-50
2022/05/26 00:54:01;;;;;;;2.20;2.00;;;;;;;;;;5076036;28;20025;-50
2022/05/26 00:56:32;;;;;;;3.90;1.90;;;;;;;;;;5076324;28;20025;-50
2022/05/26 00:59:04;;;;;;;7.65;2.00;;;;;;;;;;5076012;28;20020;-50
2022/05/26 01:01:30;;;;;;;2.35;1.88;;;;;;;;;;5075826;28;20539;-50
2022/05/26 01:03:59;;;;;;;3.65;1.98;;;;;;;;;;5075794;28;20028;-51
2022/05/26 01:06:34;;;;;;;5.10;1.60;;;;;;;;;;5076010;28;20024;-50
2022/05/26 01:09:01;;;;;;;3.42;1.80;;;;;;;;;;5075919;28;20033;-52
2022/05/26 01:11:30;;;;;;;1.40;1.30;;;;;;;;;;5075475;28;20432;-50
2022/05/26 01:13:59;;;;;;;1.60;1.50;;;;;;;;;;5075700;28;20429;-51
2022/05/26 01:16:35;;;;;;;1.77;1.67;;;;;;;;;;5075555;28;20056;-50
2022/05/26 01:19:13;;;;;;;4.10;1.63;;;;;;;;;;5075976;28;20024;-50
2022/05/26 01:21:39;;;;;;;1.60;1.50;;;;;;;;;;5075379;28;20028;-50
2022/05/26 01:24:17;;;;;;;2.05;1.17;;;;;;;;;;5075709;28;20025;-51
2022/05/26 01:26:52;;;;;;;1.98;1.40;;;;;;;;;;5074451;28;20024;-51
2022/05/26 01:29:25;;;;;;;3.67;1.90;;;;;;;;;;5075446;28;20036;-50
2022/05/26 01:32:12;;;;;;;2.13;1.40;;;;;;;;;;5075402;28;20016;-51
2022/05/26 01:34:53;;;;;;;3.05;1.48;;;;;;;;;;5075245;28;20025;-52
2022/05/26 01:37:40;;;;;;;1.65;1.48;;;;;;;;;;5075243;28;20495;-51
2022/05/26 01:40:16;;;;;;;1.50;1.40;;;;;;;;;;5075534;28;20408;-50
2022/05/26 01:42:45;;;;;;;1.50;1.35;;;;;;;;;;5075320;28;20032;-50
2022/05/26 01:45:20;;;;;;;2.72;1.35;;;;;;;;;;5075250;28;20036;-50
2022/05/26 01:47:47;;;;;;;1.55;1.45;;;;;;;;;;5075047;28;20044;-50
2022/05/26 01:50:30;;;;;;;1.45;1.20;;;;;;;;;;5074945;28;20115;-50
2022/05/26 01:53:08;;;;;;;1.50;1.20;;;;;;;;;;5074968;28;20496;-50
2022/05/26 01:55:46;;;;;;;3.55;1.10;;;;;;;;;;5074749;28;20039;-51
2022/05/26 01:58:17;;;;;;;2.65;0.90;;;;;;;;;;5075159;28;20031;-51
2022/05/26 02:00:45;;;;;;;0.98;0.93;;;;;;;;;;5074852;28;20020;-50
2022/05/26 02:03:16;;;;;;;1.00;1.00;;;;;;;;;;5074880;28;20025;-50
2022/05/26 02:05:46;;;;;;;3.60;0.90;;;;;;;;;;5074843;28;20052;-51
2022/05/26 02:08:14;;;;;;;1.50;0.80;;;;;;;;;;5074464;28;20039;-51
2022/05/26 02:10:45;;;;;;;3.08;0.98;;;;;;;;;;5074673;28;20089;-51
2022/05/26 02:13:14;;;;;;;1.88;1.10;;;;;;;;;;5074820;28;20024;-51
2022/05/26 02:15:43;;;;;;;1.65;0.95;;;;;;;;;;5074826;28;20025;-51
2022/05/26 02:18:18;;;;;;;1.67;1.05;;;;;;;;;;5074395;28;20682;-50
2022/05/26 02:20:44;;;;;;;1.23;1.10;;;;;;;;;;5074281;28;20075;-50
2022/05/26 02:23:17;;;;;;;1.98;1.00;;;;;;;;;;5074155;28;20032;-50
2022/05/26 02:25:43;;;;;;;2.45;1.40;;;;;;;;;;5074169;28;20025;-50
2022/05/26 02:28:09;;;;;;;2.33;1.40;;;;;;;;;;5074090;28;20040;-51
2022/05/26 02:30:40;;;;;;;1.88;1.30;;;;;;;;;;5074209;28;20017;-50
2022/05/26 02:33:08;;;;;;;1.45;1.30;;;;;;;;;;5074323;28;20453;-51
2022/05/26 02:35:38;;;;;;;1.30;1.20;;;;;;;;;;5074389;28;20031;-51
2022/05/26 02:38:07;;;;;;;2.85;1.40;;;;;;;;;;5073856;28;20476;-51
2022/05/26 02:40:33;;;;;;;2.67;1.30;;;;;;;;;;5074271;28;20031;-50
2022/05/26 02:43:11;;;;;;;1.85;1.30;;;;;;;;;;5074095;28;20032;-50
2022/05/26 02:45:56;;;;;;;2.55;1.40;;;;;;;;;;5074054;28;20025;-51
2022/05/26 02:48:22;;;;;;;2.10;1.42;;;;;;;;;;5073881;28;20488;-51
2022/05/26 02:51:03;;;;;;;5.82;1.30;;;;;;;;;;5073626;28;20032;-50
2022/05/26 02:53:41;;;;;;;2.28;1.55;;;;;;;;;;5074064;28;20017;-50
2022/05/26 02:56:25;;;;;;;2.50;1.20;;;;;;;;;;5073988;28;20023;-50
2022/05/26 02:58:57;;;;;;;2.97;1.40;;;;;;;;;;5074178;28;20032;-50
2022/05/26 03:01:23;;;;;;;1.48;1.38;;;;;;;;;;5073892;28;20102;-50
2022/05/26 03:03:51;;;;;;;2.55;1.60;;;;;;;;;;5073670;28;20034;-50
2022/05/26 03:06:29;;;;;;;1.77;1.55;;;;;;;;;;5073617;28;20032;-50
2022/05/26 03:08:56;;;;;;;1.90;1.63;;;;;;;;;;5073545;28;20059;-50
2022/05/26 03:11:29;;;;;;;1.40;1.20;;;;;;;;;;5073474;28;20052;-50
2022/05/26 03:13:55;;;;;;;1.85;1.48;;;;;;;;;;5073839;28;20141;-50
2022/05/26 03:16:21;;;;;;;4.07;1.50;;;;;;;;;;5073523;28;20073;-50
2022/05/26 03:18:48;;;;;;;1.30;1.20;;;;;;;;;;5073675;28;20035;-50
2022/05/26 03:21:14;;;;;;;1.55;1.17;;;;;;;;;;5073399;28;20028;-50
2022/05/26 03:23:42;;;;;;;2.45;1.05;;;;;;;;;;5073641;28;20104;-51
2022/05/26 03:26:09;;;;;;;0.80;0.80;;;;;;;;;;5073486;28;20392;-51
2022/05/26 03:28:35;;;;;;;1.15;1.05;;;;;;;;;;5073259;28;20032;-51
2022/05/26 03:31:05;;;;;;;2.13;1.38;;;;;;;;;;5073193;28;20016;-50
2022/05/26 03:40:46;;;;;;;1.48;1.10;;;;;;;;;;5073203;28;20025;-51
2022/05/26 03:41:46;;;;;;;4.63;1.40;;;;;;;;;;5073442;28;20071;-50
2022/05/26 03:44:13;;;;;;;2.38;1.27;;;;;;;;;;5073361;28;20217;-51
2022/05/26 03:46:39;;;;;;;2.38;1.20;;;;;;;;;;5073239;28;20027;-51
2022/05/26 03:49:05;;;;;;;3.95;1.27;;;;;;;;;;5073056;28;20071;-52
2022/05/26 03:51:31;;;;;;;4.32;1.38;;;;;;;;;;5076251;28;20032;-51
2022/05/26 03:53:59;;;;;;;1.25;1.00;;;;;;;;;;5077338;28;20033;-51
2022/05/26 03:56:25;;;;;;;2.67;1.10;;;;;;;;;;5077346;28;20038;-51
2022/05/26 03:58:52;;;;;;;1.50;1.33;;;;;;;;;;5077209;28;20024;-51
2022/05/26 04:01:18;;;;;;;2.88;1.40;;;;;;;;;;5077008;28;20024;-50
2022/05/26 04:03:44;;;;;;;2.53;1.30;;;;;;;;;;5077224;28;20104;-50
2022/05/26 04:06:10;;;;;;;20.70;15.20;;;;;;;;;;5077254;28;20013;-52
2022/05/26 04:08:36;;;;;;;8.18;5.32;;;;;;;;;;5076721;28;20040;-51
2022/05/26 04:11:02;;;;;;;14.77;9.50;;;;;;;;;;5076744;28;20059;-52
2022/05/26 04:13:34;;;;;;;10.20;3.78;;;;;;;;;;5077094;28;20439;-51
2022/05/26 04:16:00;;;;;;;7.97;2.47;;;;;;;;;;5076761;28;20028;-51
2022/05/26 04:18:26;;;;;;;4.80;1.83;;;;;;;;;;5076958;28;20045;-51
2022/05/26 04:20:52;;;;;;;5.63;2.13;;;;;;;;;;5076807;28;20032;-51
2022/05/26 04:23:18;;;;;;;11.27;6.22;;;;;;;;;;5076621;28;20104;-51
2022/05/26 04:25:44;;;;;;;15.15;8.70;;;;;;;;;;5077132;28;20086;-51
2022/05/26 04:28:11;;;;;;;7.85;4.93;;;;;;;;;;5076646;28;20360;-51
2022/05/26 04:30:39;;;;;;;5.80;2.17;;;;;;;;;;5076687;28;20116;-51
2022/05/26 04:33:05;;;;;;;3.78;2.67;;;;;;;;;;5076312;28;20017;-51
2022/05/26 04:35:31;;;;;;;2.55;1.88;;;;;;;;;;5076257;28;20391;-51
2022/05/26 04:37:57;;;;;;;3.45;1.50;;;;;;;;;;5076416;28;20017;-51
2022/05/26 04:40:23;;;;;;;1.88;1.35;;;;;;;;;;5076357;28;20430;-52
2022/05/26 04:42:49;;;;;;;3.35;1.10;;;;;;;;;;5076244;28;20021;-51
2022/05/26 04:45:16;;;;;;;1.92;1.42;;;;;;;;;;5076368;28;20035;-51
2022/05/26 04:47:42;;;;;;;2.90;1.35;;;;;;;;;;5076036;28;20016;-51
2022/05/26 04:50:09;;;;;;;3.47;1.42;;;;;;;;;;5075784;28;20564;-52
2022/05/26 04:52:36;;;;;;;2.80;1.27;;;;;;;;;;5076380;28;20480;-51
2022/05/26 04:55:05;;;;;;;23.85;17.23;;;;;;;;;;5075971;28;20474;-51
2022/05/26 04:57:32;;;;;;;8.38;4.32;;;;;;;;;;5075950;28;20016;-51
2022/05/26 05:00:00;;;;;;;69.97;41.35;;;;;;;;;;5076290;28;20028;-51
2022/05/26 05:02:26;;;;;;;14.40;6.50;;;;;;;;;;5074608;28;20023;-51
2022/05/26 05:04:53;;;;;;;7.90;3.58;;;;;;;;;;5075961;28;20084;-51
2022/05/26 05:07:20;;;;;;;6.65;3.50;;;;;;;;;;5075447;28;20024;-52
2022/05/26 05:09:46;;;;;;;13.35;8.00;;;;;;;;;;5075765;28;20036;-51
2022/05/26 05:12:14;;;;;;;8.63;6.10;;;;;;;;;;5075870;28;20049;-50
2022/05/26 05:14:43;;;;;;;6.60;3.85;;;;;;;;;;5075938;28;20029;-56
2022/05/26 05:17:09;;;;;;;20.13;14.45;;;;;;;;;;5075807;28;20472;-56
2022/05/26 05:19:36;;;;;;;12.00;7.07;;;;;;;;;;5057828;28;20025;-56
2022/05/26 05:22:03;;;;;;;5.65;3.03;;;;;;;;;;5075473;28;20033;-56
2022/05/26 05:24:29;;;;;;;7.07;3.35;;;;;;;;;;5075749;28;20070;-56
2022/05/26 05:26:58;;;;;;;3.60;2.20;;;;;;;;;;5075518;28;20060;-56
2022/05/26 05:29:27;;;;;;;19.35;14.25;;;;;;;;;;5057556;28;20047;-56
2022/05/26 05:31:55;;;;;;;31.35;13.82;;;;;;;;;;5075627;28;20021;-56
2022/05/26 05:34:27;;;;;;;30.20;16.55;;;;;;;;;;5075594;28;20104;-55
2022/05/26 05:36:53;;;;;;;39.72;22.70;;;;;;;;;;5075493;28;20021;-56
2022/05/26 05:39:19;;;;;;;34.30;20.40;;;;;;;;;;5075268;28;20103;-56
2022/05/26 05:41:45;;;;;;;10.63;5.80;;;;;;;;;;5075292;28;20469;-56
2022/05/26 05:44:11;;;;;;;6.85;3.42;;;;;;;;;;5075271;28;20107;-55
2022/05/26 05:46:53;;;;;;;6.25;2.90;;;;;;;;;;5075322;28;20016;-55
2022/05/26 05:49:20;;;;;;;6.55;2.35;;;;;;;;;;5075133;28;20544;-55
2022/05/26 05:51:46;;;;;;;4.45;1.50;;;;;;;;;;5074989;28;20412;-55
2022/05/26 05:54:12;;;;;;;4.72;1.70;;;;;;;;;;5074912;28;20086;-55
2022/05/26 05:56:38;;;;;;;1.88;1.40;;;;;;;;;;5075275;28;20043;-55
2022/05/26 05:59:07;;;;;;;2.63;1.35;;;;;;;;;;5074988;28;20075;-56
2022/05/26 06:01:33;;;;;;;2.35;1.17;;;;;;;;;;5074940;28;20137;-56
2022/05/26 06:04:00;;;;;;;5.90;1.60;;;;;;;;;;5074952;28;20111;-55
2022/05/26 06:06:26;;;;;;;11.60;1.90;;;;;;;;;;5074677;28;20028;-56
2022/05/26 06:08:52;;;;;;;3.17;1.08;;;;;;;;;;5074868;28;20094;-55
2022/05/26 06:11:18;;;;;;;2.70;1.42;;;;;;;;;;5074714;28;20075;-54
2022/05/26 06:13:44;;;;;;;3.83;1.05;;;;;;;;;;5074311;28;20033;-55
2022/05/26 06:16:11;;;;;;;1.73;0.90;;;;;;;;;;5074596;28;20468;-55
2022/05/26 06:18:37;;;;;;;3.60;0.82;;;;;;;;;;5074447;28;20035;-57
2022/05/26 06:21:05;;;;;;;2.08;0.90;;;;;;;;;;5074282;28;20032;-57
2022/05/26 06:23:31;;;;;;;1.58;1.42;;;;;;;;;;5074470;28;20036;-56
2022/05/26 06:25:57;;;;;;;4.65;1.00;;;;;;;;;;5074381;28;20020;-56
2022/05/26 06:31:09;;;;;;;5.22;3.63;;;;;;;;;;5074635;28;20621;-57
2022/05/26 06:39:06;;;;;;;1.17;0.90;;;;;;;;;;5074402;28;20040;-56
2022/05/26 06:44:20;;;;;;;2.47;1.20;;;;;;;;;;5074450;28;20035;-56
2022/05/26 06:46:46;;;;;;;2.00;0.90;;;;;;;;;;5074334;28;20173;-56
2022/05/26 06:49:12;;;;;;;1.42;1.10;;;;;;;;;;5074019;28;20029;-57
2022/05/26 06:51:39;;;;;;;4.72;1.10;;;;;;;;;;5073798;28;20487;-57
2022/05/26 06:54:05;;;;;;;3.95;1.40;;;;;;;;;;5073731;28;20112;-58
2022/05/26 06:56:32;;;;;;;25.23;21.75;;;;;;;;;;5073856;28;20053;-54
2022/05/26 06:58:58;;;;;;;14.93;8.50;;;;;;;;;;5073796;28;20365;-59
2022/05/26 07:01:26;;;;;;;18.13;8.48;;;;;;;;;;5073614;28;20461;-60
2022/05/26 07:03:52;;;;;;;66.07;45.63;;;;;;;;;;5073685;28;20045;-56
2022/05/26 07:06:20;;;;;;;17.52;11.98;;;;;;;;;;5073788;28;20074;-57
2022/05/26 07:08:47;;;;;;;15.48;7.32;;;;;;;;;;5073644;28;20119;-58
2022/05/26 07:11:13;;;;;;;5.30;3.72;;;;;;;;;;5073459;28;20119;-58
2022/05/26 07:13:39;;;;;;;5.05;2.53;;;;;;;;;;5073307;28;20024;-58
2022/05/26 07:16:07;;;;;;;8.93;4.10;;;;;;;;;;5073397;28;20024;-57
2022/05/26 07:18:33;;;;;;;27.35;14.98;;;;;;;;;;5073653;28;20100;-58
2022/05/26 07:20:59;;;;;;;17.20;9.27;;;;;;;;;;5073396;28;20021;-56
2022/05/26 07:23:26;;;;;;;16.60;10.88;;;;;;;;;;5073366;28;20111;-56
2022/05/26 07:25:52;;;;;;;14.57;7.82;;;;;;;;;;5072633;28;20024;-55
2022/05/26 07:28:18;;;;;;;24.75;18.25;;;;;;;;;;5073221;28;20032;-55
2022/05/26 07:30:44;;;;;;;8.32;5.65;;;;;;;;;;5073528;28;20388;-56
2022/05/26 07:33:10;;;;;;;28.02;18.15;;;;;;;;;;5073295;28;20031;-55
2022/05/26 07:35:38;;;;;;;15.35;8.15;;;;;;;;;;5073387;28;20030;-58
2022/05/26 07:43:35;;;;;;;11.52;7.60;;;;;;;;;;5073663;28;20413;-53
2022/05/26 07:46:01;;;;;;;13.32;5.80;;;;;;;;;;5073365;28;20044;-52
2022/05/26 07:48:27;;;;;;;6.13;4.25;;;;;;;;;;5073282;28;20020;-52
2022/05/26 07:50:53;;;;;;;11.95;7.45;;;;;;;;;;5073223;28;20039;-52
2022/05/26 07:53:19;;;;;;;36.13;11.15;;;;;;;;;;5073423;28;20082;-53
2022/05/26 07:55:45;;;;;;;9.75;4.78;;;;;;;;;;5073314;28;20048;-52
2022/05/26 07:58:11;;;;;;;48.00;29.52;;;;;;;;;;5073248;28;20025;-53
2022/05/26 08:00:37;;;;;;;28.90;17.23;;;;;;;;;;5073181;28;20137;-54
2022/05/26 08:03:04;;;;;;;57.25;34.58;;;;;;;;;;5073020;28;20067;-53
2022/05/26 08:05:30;;;;;;;35.50;23.65;;;;;;;;;;5072765;28;20024;-56
2022/05/26 08:07:56;;;;;;;10.50;5.78;;;;;;;;;;5073152;28;20074;-54
2022/05/26 08:10:22;;;;;;;14.77;8.30;;;;;;;;;;5072711;28;20037;-53
2022/05/26 08:12:48;;;;;;;5.60;4.25;;;;;;;;;;5073218;28;20036;-53
2022/05/26 08:15:14;;;;;;;8.55;5.30;;;;;;;;;;5073062;28;20082;-53
2022/05/26 08:17:44;;;;;;;4.82;2.50;;;;;;;;;;5072945;28;20031;-54
2022/05/26 08:20:11;;;;;;;4.35;3.15;;;;;;;;;;5072829;28;20029;-53
2022/05/26 08:22:38;;;;;;;3.72;1.35;;;;;;;;;;5072935;28;20048;-53
2022/05/26 08:25:05;;;;;;;7.43;1.45;;;;;;;;;;5072959;28;20033;-53
2022/05/26 08:27:31;;;;;;;4.93;2.65;;;;;;;;;;5072955;28;20468;-53
2022/05/26 08:29:59;;;;;;;4.05;2.10;;;;;;;;;;5073030;28;20032;-54
2022/05/26 08:32:26;;;;;;;2.15;1.35;;;;;;;;;;5072591;28;20075;-53
2022/05/26 08:34:59;;;;;;;3.70;1.17;;;;;;;;;;5072926;28;20163;-53
2022/05/26 08:37:25;;;;;;;1.60;0.85;;;;;;;;;;5075546;28;20035;-53
2022/05/26 08:39:51;;;;;;;1.40;1.08;;;;;;;;;;5076600;28;20028;-53
2022/05/26 08:42:19;;;;;;;3.90;1.50;;;;;;;;;;5076442;28;20104;-53
2022/05/26 08:44:47;;;;;;;6.75;5.60;;;;;;;;;;5061855;28;20174;-53
2022/05/26 08:47:13;;;;;;;26.80;19.88;;;;;;;;;;5053070;28;20017;-52
2022/05/26 08:49:39;;;;;;;47.10;32.70;;;;;;;;;;5055595;28;20044;-52
2022/05/26 08:52:07;;;;;;;36.33;23.92;;;;;;;;;;5055636;28;20091;-53
2022/05/26 08:54:51;;;;;;;5.00;3.58;;;;;;;;;;5055497;28;20021;-51
2022/05/26 08:57:40;;;;;;;14.50;10.70;;;;;;;;;;5053537;28;20025;-51
2022/05/26 09:00:08;;;;;;;9.55;6.82;;;;;;;;;;4954553;29;20035;-52
2022/05/26 09:02:42;;;;;;;15.60;6.43;;;;;;;;;;4955244;29;20027;-52
2022/05/26 09:05:14;;;;;;;6.93;2.72;;;;;;;;;;4955169;28;20066;-51
2022/05/26 09:13:42;;;;;;;6.18;3.83;;;;;;;;;;4956191;29;20050;-53
2022/05/26 09:16:09;;;;;;;14.30;7.30;;;;;;;;;;4956071;29;20042;-53
2022/05/26 09:18:35;;;;;;;5.95;2.38;;;;;;;;;;4955714;29;20440;-52
2022/05/26 09:21:21;;;;;;;3.03;2.38;;;;;;;;;;4955423;29;20031;-53
2022/05/26 09:23:47;;;;;;;7.13;5.30;;;;;;;;;;4955335;28;20040;-51
2022/05/26 09:26:17;;;;;;;14.55;7.15;;;;;;;;;;4955545;29;20049;-52
2022/05/26 09:28:48;;;;;;;5.68;3.38;;;;;;;;;;4955105;29;20075;-51
2022/05/26 09:31:22;;;;;;;22.90;12.13;;;;;;;;;;4955464;29;20117;-51
2022/05/26 09:34:01;;;;;;;3.25;1.90;;;;;;;;;;4955225;29;20057;-51
2022/05/26 09:36:37;;;;;;;3.13;1.88;;;;;;;;;;4966003;28;20046;-52
2022/05/26 09:39:04;;;;;;;5.82;2.88;;;;;;;;;;5020422;28;20068;-53
2022/05/26 09:41:37;;;;;;;9.10;6.18;;;;;;;;;;5022322;28;20117;-51
2022/05/26 09:44:03;;;;;;;16.02;9.63;;;;;;;;;;5027405;28;20041;-53
2022/05/26 09:46:32;;;;;;;4.55;2.60;;;;;;;;;;5054551;28;20551;-52
2022/05/26 09:48:59;;;;;;;7.47;5.22;;;;;;;;;;5053650;28;20521;-52
2022/05/26 09:51:34;;;;;;;4.63;3.03;;;;;;;;;;5054594;28;20381;-53
2022/05/26 09:54:00;;;;;;;3.40;2.53;;;;;;;;;;5054557;28;20028;-53
2022/05/26 09:56:28;;;;;;;5.95;4.75;;;;;;;;;;5054453;28;20071;-53
2022/05/26 09:58:54;;;;;;;24.92;19.02;;;;;;;;;;5054378;28;20032;-52
2022/05/26 10:01:26;;;;;;;29.58;15.15;;;;;;;;;;5054346;28;20036;-52
2022/05/26 10:03:52;;;;;;;8.45;5.43;;;;;;;;;;5051894;28;20080;-51
2022/05/26 10:06:36;;;;;;;17.83;11.25;;;;;;;;;;5053936;28;20028;-52
2022/05/26 10:09:12;;;;;;;15.95;9.88;;;;;;;;;;5054087;28;20127;-53
2022/05/26 10:11:53;;;;;;;18.80;10.85;;;;;;;;;;5052641;28;20111;-53
2022/05/26 10:14:27;;;;;;;14.98;10.77;;;;;;;;;;5054364;28;20423;-52
2022/05/26 10:17:07;;;;;;;47.60;30.13;;;;;;;;;;5054599;28;20052;-52
2022/05/26 10:19:51;;;;;;;89.60;67.83;;;;;;;;;;5054829;28;20025;-52
2022/05/26 10:22:42;;;;;;;9.35;6.63;;;;;;;;;;5054540;28;20266;-52
2022/05/26 10:25:17;;;;;;;17.05;8.38;;;;;;;;;;5054165;28;20059;-52
2022/05/26 10:28:06;;;;;;;11.60;6.20;;;;;;;;;;5054799;28;20032;-52
2022/05/26 10:30:32;;;;;;;7.20;4.95;;;;;;;;;;5053234;28;20087;-51
2022/05/26 10:32:58;;;;;;;6.68;4.80;;;;;;;;;;5054355;28;20091;-53
2022/05/26 10:35:31;;;;;;;11.98;6.45;;;;;;;;;;5054081;28;20025;-52
2022/05/26 10:38:00;;;;;;;5.75;2.10;;;;;;;;;;5054397;28;20017;-53
2022/05/26 10:40:26;;;;;;;10.38;4.45;;;;;;;;;;5054017;28;20025;-53
2022/05/26 10:42:52;;;;;;;13.70;5.70;;;;;;;;;;5054137;28;20087;-54
2022/05/26 10:45:18;;;;;;;8.70;2.90;;;;;;;;;;5054038;28;20021;-54
2022/05/26 10:47:44;;;;;;;4.47;1.70;;;;;;;;;;5053919;28;20154;-53
2022/05/26 10:50:39;;;;;;;6.82;4.72;;;;;;;;;;5053883;28;20037;-53
2022/05/26 10:53:25;;;;;;;6.82;2.55;;;;;;;;;;4954112;29;20044;-54
2022/05/26 10:55:57;;;;;;;9.27;3.90;;;;;;;;;;4953982;29;20053;-54
2022/05/26 10:58:28;;;;;;;6.03;1.48;;;;;;;;;;4953509;29;20066;-54
2022/05/26 11:00:57;;;;;;;7.38;2.00;;;;;;;;;;4953819;28;20030;-54
2022/05/26 11:03:28;;;;;;;4.78;1.75;;;;;;;;;;4953950;29;20039;-53
2022/05/26 11:05:57;;;;;;;9.18;1.75;;;;;;;;;;4953860;29;20026;-54
2022/05/26 11:08:30;;;;;;;10.07;0.90;;;;;;;;;;4953732;29;20035;-53
2022/05/26 11:11:15;;;;;;;1.38;0.95;;;;;;;;;;4953255;29;20098;-53
2022/05/26 11:13:49;;;;;;;2.88;1.25;;;;;;;;;;4953887;29;20054;-54
2022/05/26 11:19:16;;;;;;;1.80;0.73;;;;;;;;;;4953572;29;20043;-54
2022/05/26 11:21:43;;;;;;;1.40;1.05;;;;;;;;;;4953316;29;20503;-54
2022/05/26 11:24:14;;;;;;;4.43;1.70;;;;;;;;;;4953352;29;20048;-54
2022/05/26 11:26:50;;;;;;;4.18;1.30;;;;;;;;;;4953819;29;20489;-54
2022/05/26 11:29:31;;;;;;;3.80;1.58;;;;;;;;;;4992338;28;20377;-54
2022/05/26 11:37:41;;;;;;;5.78;2.13;;;;;;;;;;5053651;28;20492;-54
2022/05/26 11:40:09;;;;;;;2.28;1.20;;;;;;;;;;5053235;28;20033;-54
2022/05/26 11:42:40;;;;;;;3.05;1.10;;;;;;;;;;5053439;28;20082;-53
2022/05/26 11:45:09;;;;;;;3.72;0.95;;;;;;;;;;5053320;28;20484;-54
2022/05/26 11:47:53;;;;;;;1.67;1.00;;;;;;;;;;5053388;28;20039;-54
2022/05/26 11:50:30;;;;;;;1.85;0.90;;;;;;;;;;5053571;28;20073;-54
2022/05/26 11:52:56;;;;;;;7.22;3.88;;;;;;;;;;5053179;28;20048;-54
2022/05/26 11:55:40;;;;;;;1.17;0.98;;;;;;;;;;5053252;28;20443;-52
2022/05/26 11:58:28;;;;;;;1.55;0.77;;;;;;;;;;5053452;28;20388;-54
2022/05/26 12:01:29;;;;;;;1.45;0.40;;;;;;;;;;5053292;28;20505;-53
2022/05/26 12:03:55;;;;;;;2.05;0.63;;;;;;;;;;4953203;29;20031;-54
2022/05/26 12:06:47;;;;;;;2.78;0.60;;;;;;;;;;4953062;29;20043;-53
2022/05/26 12:09:20;;;;;;;2.05;1.10;;;;;;;;;;4949587;28;20492;-52
2022/05/26 12:11:54;;;;;;;1.23;0.98;;;;;;;;;;4954650;28;20623;-53
2022/05/26 12:14:23;;;;;;;1.50;0.73;;;;;;;;;;4957240;29;20471;-53
2022/05/26 12:16:49;;;;;;;1.23;0.80;;;;;;;;;;4956761;29;20031;-54
2022/05/26 12:19:35;;;;;;;0.60;0.57;;;;;;;;;;4956725;29;20032;-53
2022/05/26 12:22:25;;;;;;;3.63;0.98;;;;;;;;;;4956534;29;20031;-54
2022/05/26 12:24:58;;;;;;;1.13;0.50;;;;;;;;;;4956511;29;20070;-55
2022/05/26 12:27:59;;;;;;;2.20;0.93;;;;;;;;;;4956603;29;20023;-54
2022/05/26 12:30:43;;;;;;;4.82;1.52;;;;;;;;;;4880746;29;20461;-53
2022/05/26 12:33:18;;;;;;;1.50;1.00;;;;;;;;;;4881035;29;20078;-54
2022/05/26 12:35:44;;;;;;;4.00;1.20;;;;;;;;;;4880773;29;20033;-54
2022/05/26 12:38:19;;;;;;;1.92;1.05;;;;;;;;;;4915963;29;20095;-53
2022/05/26 12:41:04;;;;;;;1.52;0.70;;;;;;;;;;4937216;29;20111;-53
2022/05/26 12:43:53;;;;;;;4.95;0.90;;;;;;;;;;4937193;29;20032;-53
2022/05/26 12:46:25;;;;;;;1.33;0.97;;;;;;;;;;4899317;29;20039;-53
2022/05/26 12:48:57;;;;;;;2.15;1.52;;;;;;;;;;4899037;29;20048;-54
2022/05/26 12:51:24;;;;;;;1.00;0.70;;;;;;;;;;4899273;29;20044;-54
2022/05/26 12:53:52;;;;;;;0.70;0.60;;;;;;;;;;4899220;29;20076;-53
2022/05/26 12:56:24;;;;;;;1.23;0.68;;;;;;;;;;4898949;29;20059;-54
2022/05/26 12:58:59;;;;;;;2.10;0.82;;;;;;;;;;4899059;29;20526;-54
2022/05/26 13:01:26;;;;;;;2.67;1.25;;;;;;;;;;4898995;29;20028;-54
2022/05/26 13:04:03;;;;;;;3.40;1.60;;;;;;;;;;4921295;28;20065;-53
2022/05/26 13:06:30;;;;;;;2.10;0.80;;;;;;;;;;4975005;28;20027;-54
2022/05/26 13:09:01;;;;;;;1.05;0.85;;;;;;;;;;4975237;28;20057;-54
2022/05/26 13:11:27;;;;;;;;;;;;;;;;;;4975327;28;20043;-54
2022/05/26 13:13:57;;;;;;;2.55;0.60;;;;;;;;;;4974943;28;20302;-53
2022/05/26 13:16:23;;;;;;;1.88;0.70;;;;;;;;;;4975311;28;20042;-53
2022/05/26 13:18:50;;;;;;;2.63;0.95;;;;;;;;;;4975199;28;20498;-53
2022/05/26 13:21:23;;;;;;;2.72;1.00;;;;;;;;;;4974639;28;20074;-53
2022/05/26 13:23:51;;;;;;;4.03;0.85;;;;;;;;;;5032146;28;20040;-53
2022/05/26 13:26:18;;;;;;;3.25;0.90;;;;;;;;;;5055570;28;20103;-53
2022/05/26 13:28:47;;;;;;;4.18;0.85;;;;;;;;;;5055735;28;20057;-54
2022/05/26 13:34:01;;;;;;;4.45;2.80;;;;;;;;;;5055842;28;20059;-53
2022/05/26 13:36:35;;;;;;;5.20;2.15;;;;;;;;;;5055351;28;20021;-53
2022/05/26 13:39:09;;;;;;;0.70;0.70;;;;;;;;;;5037779;28;20166;-52
2022/05/26 13:41:36;;;;;;;0.90;0.73;;;;;;;;;;5055193;28;20048;-53
2022/05/26 13:44:06;;;;;;;4.90;1.70;;;;;;;;;;5055293;28;20040;-53
2022/05/26 13:46:37;;;;;;;1.13;0.60;;;;;;;;;;5055095;28;20024;-53
2022/05/26 13:49:03;;;;;;;;;;;;;;;;;;5055624;28;20246;-54
2022/05/26 13:51:36;;;;;;;3.85;0.98;;;;;;;;;;5055334;28;20380;-54
2022/05/26 13:54:14;;;;;;;1.25;1.00;;;;;;;;;;5055366;28;20083;-53
2022/05/26 13:56:44;;;;;;;2.80;1.80;;;;;;;;;;5055112;28;20495;-53
2022/05/26 13:59:12;;;;;;;1.20;0.90;;;;;;;;;;5054951;28;20033;-53
2022/05/26 14:01:40;;;;;;;1.35;0.55;;;;;;;;;;5055007;28;20370;-53
2022/05/26 14:04:09;;;;;;;1.80;1.00;;;;;;;;;;5054836;28;20025;-53
2022/05/26 14:06:36;;;;;;;3.70;1.20;;;;;;;;;;5054751;28;20025;-53
2022/05/26 14:09:20;;;;;;;4.60;1.00;;;;;;;;;;5054644;28;20025;-53
2022/05/26 14:11:46;;;;;;;5.38;1.45;;;;;;;;;;5054578;28;20512;-53
2022/05/26 14:14:23;;;;;;;3.65;1.50;;;;;;;;;;5054648;28;20485;-53
2022/05/26 14:16:49;;;;;;;1.20;0.98;;;;;;;;;;5054699;28;20029;-54
2022/05/26 14:19:17;;;;;;;2.78;1.13;;;;;;;;;;5054597;28;20043;-53
2022/05/26 14:21:48;;;;;;;1.40;1.00;;;;;;;;;;5054850;28;20024;-53
2022/05/26 14:24:34;;;;;;;6.82;3.45;;;;;;;;;;5054646;28;20033;-53
2022/05/26 14:27:21;;;;;;;6.28;1.70;;;;;;;;;;5054314;28;20029;-53
2022/05/26 14:29:51;;;;;;;2.97;1.15;;;;;;;;;;5051254;28;20036;-52
2022/05/26 14:32:20;;;;;;;5.88;1.30;;;;;;;;;;5053650;28;20526;-52
2022/05/26 14:34:51;;;;;;;3.38;1.20;;;;;;;;;;5053780;28;20064;-52
2022/05/26 14:37:17;;;;;;;;;;;;;;;;;;5054727;28;20024;-53
2022/05/26 14:39:44;;;;;;;22.40;14.30;;;;;;;;;;5054042;28;20289;-53
2022/05/26 14:42:22;;;;;;;21.58;14.60;;;;;;;;;;5054070;28;20131;-53
2022/05/26 14:44:48;;;;;;;28.15;19.95;;;;;;;;;;5054101;28;20033;-53
2022/05/26 14:47:15;;;;;;;18.33;9.65;;;;;;;;;;5054000;28;20017;-53
2022/05/26 14:49:42;;;;;;;8.65;3.88;;;;;;;;;;5053789;28;20064;-54
2022/05/26 14:52:09;;;;;;;29.05;16.63;;;;;;;;;;5054281;28;20053;-53
2022/05/26 14:57:22;;;;;;;9.90;6.15;;;;;;;;;;5054228;28;20036;-53
2022/05/26 14:59:48;;;;;;;10.05;6.18;;;;;;;;;;5053925;28;20029;-53
2022/05/26 15:02:14;;;;;;;7.65;4.63;;;;;;;;;;5053929;28;20017;-53
2022/05/26 15:04:41;;;;;;;7.07;5.00;;;;;;;;;;5053805;28;20051;-53
2022/05/26 15:07:07;;;;;;;3.15;1.90;;;;;;;;;;5053560;28;20025;-53
2022/05/26 15:09:34;;;;;;;3.42;2.25;;;;;;;;;;5053671;28;20033;-53
2022/05/26 15:12:02;;;;;;;6.05;3.22;;;;;;;;;;5053763;28;20438;-53
2022/05/26 15:14:29;;;;;;;5.35;1.52;;;;;;;;;;5054018;28;20039;-53
2022/05/26 15:16:57;;;;;;;5.90;2.80;;;;;;;;;;5053401;28;20035;-53
2022/05/26 15:19:30;;;;;;;2.50;1.33;;;;;;;;;;5053277;28;20465;-53
2022/05/26 15:21:59;;;;;;;4.53;1.50;;;;;;;;;;5053649;28;20094;-53
2022/05/26 15:24:25;;;;;;;4.82;2.40;;;;;;;;;;5053604;28;20554;-53
2022/05/26 15:26:52;;;;;;;4.93;1.60;;;;;;;;;;5053324;28;20032;-52
2022/05/26 15:29:18;;;;;;;2.80;1.25;;;;;;;;;;5053274;28;20029;-53
2022/05/26 15:31:44;;;;;;;3.55;1.73;;;;;;;;;;5053262;28;20056;-54
2022/05/26 15:34:10;;;;;;;8.40;1.20;;;;;;;;;;5053562;28;20025;-54
2022/05/26 15:36:37;;;;;;;7.07;1.10;;;;;;;;;;5053536;28;20067;-52
2022/05/26 15:39:04;;;;;;;6.72;2.10;;;;;;;;;;5053298;28;20040;-53
2022/05/26 15:41:30;;;;;;;5.15;1.45;;;;;;;;;;5053454;28;20021;-53